Map

Track Data

SID SEASON NUMBER BASIN SUBBASIN NAME ISO_TIME NATURE LAT LON WMO_WIND WMO_PRES WMO_AGENCY TRACK_TYPE DIST2LAND LANDFALL IFLAG USA_AGENCY USA_ATCF_ID USA_LAT USA_LON USA_RECORD USA_STATUS USA_WIND USA_PRES USA_SSHS USA_R34_NE USA_R34_SE USA_R34_SW USA_R34_NW USA_R50_NE USA_R50_SE USA_R50_SW USA_R50_NW USA_R64_NE USA_R64_SE USA_R64_SW USA_R64_NW USA_POCI USA_ROCI USA_RMW USA_EYE TOKYO_LAT TOKYO_LON TOKYO_GRADE TOKYO_WIND TOKYO_PRES TOKYO_R50_DIR TOKYO_R50_LONG TOKYO_R50_SHORT TOKYO_R30_DIR TOKYO_R30_LONG TOKYO_R30_SHORT TOKYO_LAND CMA_LAT CMA_LON CMA_CAT CMA_WIND CMA_PRES HKO_LAT HKO_LON HKO_CAT HKO_WIND HKO_PRES NEWDELHI_LAT NEWDELHI_LON NEWDELHI_GRADE NEWDELHI_WIND NEWDELHI_PRES NEWDELHI_CI NEWDELHI_DP NEWDELHI_POCI REUNION_LAT REUNION_LON REUNION_TYPE REUNION_WIND REUNION_PRES REUNION_TNUM REUNION_CI REUNION_RMW REUNION_R34_NE REUNION_R34_SE REUNION_R34_SW REUNION_R34_NW REUNION_R50_NE REUNION_R50_SE REUNION_R50_SW REUNION_R50_NW REUNION_R64_NE REUNION_R64_SE REUNION_R64_SW REUNION_R64_NW BOM_LAT BOM_LON BOM_TYPE BOM_WIND BOM_PRES BOM_TNUM BOM_CI BOM_RMW BOM_R34_NE BOM_R34_SE BOM_R34_SW BOM_R34_NW BOM_R50_NE BOM_R50_SE BOM_R50_SW BOM_R50_NW BOM_R64_NE BOM_R64_SE BOM_R64_SW BOM_R64_NW BOM_ROCI BOM_POCI BOM_EYE BOM_POS_METHOD BOM_PRES_METHOD NADI_LAT NADI_LON NADI_CAT NADI_WIND NADI_PRES WELLINGTON_LAT WELLINGTON_LON WELLINGTON_WIND WELLINGTON_PRES DS824_LAT DS824_LON DS824_STAGE DS824_WIND DS824_PRES TD9636_LAT TD9636_LON TD9636_STAGE TD9636_WIND TD9636_PRES TD9635_LAT TD9635_LON TD9635_WIND TD9635_PRES TD9635_ROCI NEUMANN_LAT NEUMANN_LON NEUMANN_CLASS NEUMANN_WIND NEUMANN_PRES MLC_LAT MLC_LON MLC_CLASS MLC_WIND MLC_PRES USA_GUST BOM_GUST BOM_GUST_PER REUNION_GUST REUNION_GUST_PER USA_SEAHGT USA_SEARAD_NE USA_SEARAD_SE USA_SEARAD_SW USA_SEARAD_NW STORM_SPEED STORM_DIR
1953258N19296 1953 54 NA CS EDNA 1953-09-15 00:00:00 TS 18.9000 -64.0000 45 hurdat_atl main 177 145 O_____________ hurdat_atl AL071953 18.9000 -64.0000 TS 45 0 15 310
1953258N19296 1953 54 NA NA EDNA 1953-09-15 03:00:00 TS 19.4002 -64.6220 main 153 146 P_____________ AL071953 19.4002 -64.6220 TS 50 0 16 309
1953258N19296 1953 54 NA NA EDNA 1953-09-15 06:00:00 TS 19.9000 -65.3000 55 hurdat_atl main 170 170 O_____________ hurdat_atl AL071953 19.9000 -65.3000 TS 55 0 17 307
1953258N19296 1953 54 NA NA EDNA 1953-09-15 09:00:00 TS 20.4001 -66.0576 main 223 223 P_____________ AL071953 20.4001 -66.0576 TS 60 0 17 305
1953258N19296 1953 54 NA NA EDNA 1953-09-15 12:00:00 TS 20.9000 -66.8000 65 995 hurdat_atl main 279 279 O_____________ hurdat_atl AL071953 20.9000 -66.8000 HU 65 995 1 16 308
1953258N19296 1953 54 NA NA EDNA 1953-09-15 15:00:00 TS 21.3996 -67.4305 main 307 300 P_____________ AL071953 21.3996 -67.4305 HU 70 991 1 15 312
1953258N19296 1953 54 NA NA EDNA 1953-09-15 18:00:00 TS 21.9000 -68.0000 75 987 hurdat_atl main 320 320 O_____________ hurdat_atl AL071953 21.9000 -68.0000 HU 75 987 1 15 314
1953258N19296 1953 54 NA NA EDNA 1953-09-15 21:00:00 TS 22.4149 -68.5726 main 345 345 P_____________ AL071953 22.4149 -68.5726 HU 75 1 14 315
1953258N19296 1953 54 NA NA EDNA 1953-09-16 00:00:00 TS 22.9000 -69.1000 75 hurdat_atl main 379 375 O_____________ hurdat_atl AL071953 22.9000 -69.1000 HU 75 1 13 314
1953258N19296 1953 54 NA NA EDNA 1953-09-16 03:00:00 TS 23.3073 -69.5731 main 404 404 P_____________ AL071953 23.3073 -69.5731 HU 77 1 12 314
1953258N19296 1953 54 NA NA EDNA 1953-09-16 06:00:00 TS 23.7000 -70.0000 80 hurdat_atl main 416 408 O_____________ hurdat_atl AL071953 23.7000 -70.0000 HU 80 1 11 316
1953258N19296 1953 54 NA NA EDNA 1953-09-16 09:00:00 TS 24.1201 -70.4450 main 419 413 P_____________ AL071953 24.1201 -70.4450 HU 80 1 12 321
1953258N19296 1953 54 NA NA EDNA 1953-09-16 12:00:00 TS 24.6000 -70.8000 80 977 hurdat_atl main 441 441 O_____________ hurdat_atl AL071953 24.6000 -70.8000 HU 80 977 1 12 333
1953258N19296 1953 54 NA NA EDNA 1953-09-16 15:00:00 TS 25.1698 -71.0323 main 491 491 P_____________ AL071953 25.1698 -71.0323 HU 85 973 2 12 347
1953258N19296 1953 54 NA NA EDNA 1953-09-16 18:00:00 TS 25.8000 -71.1000 90 969 hurdat_atl main 549 549 O_____________ hurdat_atl AL071953 25.8000 -71.1000 HU 90 969 2 13 0
1953258N19296 1953 54 NA NA EDNA 1953-09-16 21:00:00 TS 26.4575 -71.0030 main 626 626 P_____________ AL071953 26.4575 -71.0030 HU 92 2 13 12
1953258N19296 1953 54 NA NA EDNA 1953-09-17 00:00:00 TS 27.1000 -70.8000 95 hurdat_atl main 696 696 O_____________ hurdat_atl AL071953 27.1000 -70.8000 HU 95 2 12 14
1953258N19296 1953 54 NA NA EDNA 1953-09-17 03:00:00 TS 27.6645 -70.6738 main 762 762 P_____________ AL071953 27.6645 -70.6738 HU 95 2 12 18
1953258N19296 1953 54 NA NA EDNA 1953-09-17 06:00:00 TS 28.2000 -70.4000 95 hurdat_atl main 824 824 O_____________ hurdat_atl AL071953 28.2000 -70.4000 HU 95 2 13 35
1953258N19296 1953 54 NA NA EDNA 1953-09-17 09:00:00 TS 28.7277 -69.8321 main 897 897 P_____________ AL071953 28.7277 -69.8321 HU 95 2 16 46
1953258N19296 1953 54 NA NA EDNA 1953-09-17 12:00:00 TS 29.3000 -69.1000 95 966 hurdat_atl main 920 918 O_____________ hurdat_atl AL071953 29.3000 -69.1000 HU 95 966 2 18 46
1953258N19296 1953 54 NA NA EDNA 1953-09-17 15:00:00 TS 29.9620 -68.3862 main 919 919 P_____________ AL071953 29.9620 -68.3862 HU 97 964 3 19 43
1953258N19296 1953 54 NA NA EDNA 1953-09-17 18:00:00 TS 30.7000 -67.6000 100 962 hurdat_atl main 927 927 O_____________ hurdat_atl AL071953 30.7000 -67.6000 HU 100 962 3 20 43
1953258N19296 1953 54 NA NA EDNA 1953-09-17 21:00:00 TS 31.4538 -66.7645 main 935 935 P_____________ AL071953 31.4538 -66.7645 HU 100 3 22 44
1953258N19296 1953 54 NA NA EDNA 1953-09-18 00:00:00 TS 32.3000 -65.8000 100 hurdat_atl main 972 972 O_____________ hurdat_atl AL071953 32.3000 -65.8000 HU 100 3 25 44
1953258N19296 1953 54 NA NA EDNA 1953-09-18 03:00:00 TS 33.2527 -64.7159 main 1024 1004 P_____________ AL071953 33.2527 -64.7159 HU 97 3 28 45
1953258N19296 1953 54 NA NA EDNA 1953-09-18 06:00:00 TS 34.3000 -63.4000 95 hurdat_atl main 1005 957 O_____________ hurdat_atl AL071953 34.3000 -63.4000 HU 95 2 32 49
1953258N19296 1953 54 NA NA EDNA 1953-09-18 09:00:00 TS 35.3690 -61.8084 main 949 900 P_____________ AL071953 35.3690 -61.8084 HU 90 2 35 52
1953258N19296 1953 54 NA NA EDNA 1953-09-18 12:00:00 TS 36.5000 -60.0000 85 hurdat_atl main 899 873 O_____________ hurdat_atl AL071953 36.5000 -60.0000 HU 85 2 38 52
1953258N19296 1953 54 NA NA EDNA 1953-09-18 15:00:00 TS 37.7047 -58.1142 main 870 813 P_____________ AL071953 37.7047 -58.1142 HU 82 1 39 52
1953258N19296 1953 54 NA NA EDNA 1953-09-18 18:00:00 TS 38.9000 -56.1000 80 hurdat_atl main 812 734 O_____________ hurdat_atl AL071953 38.9000 -56.1000 HU 80 1 40 55
1953258N19296 1953 54 NA NA EDNA 1953-09-18 21:00:00 TS 40.0094 -53.9408 main 734 640 P_____________ AL071953 40.0094 -53.9408 HU 75 1 39 57
1953258N19296 1953 54 NA NA EDNA 1953-09-19 00:00:00 ET 41.0000 -51.8000 70 hurdat_atl main 632 587 O_____________ hurdat_atl AL071953 41.0000 -51.8000 EX 70 -4 35 59
1953258N19296 1953 54 NA NA EDNA 1953-09-19 03:00:00 ET 41.8192 -49.9528 main 590 584 P_____________ AL071953 41.8192 -49.9528 EX 67 -4 32 61
1953258N19296 1953 54 NA NA EDNA 1953-09-19 06:00:00 ET 42.6000 -48.0000 65 hurdat_atl main 604 604 O_____________ hurdat_atl AL071953 42.6000 -48.0000 EX 65 -4 36 64
1953258N19296 1953 54 NA NA EDNA 1953-09-19 09:00:00 ET 43.4249 -45.5496 main 697 697 P_____________ AL071953 43.4249 -45.5496 EX 62 -4 41 66
1953258N19296 1953 54 NA NA EDNA 1953-09-19 12:00:00 ET 44.3000 -42.8000 60 hurdat_atl main 833 833 O_____________ hurdat_atl AL071953 44.3000 -42.8000 EX 60 -4 44 66
1953258N19296 1953 54 NA NA EDNA 1953-09-19 15:00:00 ET 45.2311 -39.9039 main 1002 1002 P_____________ AL071953 45.2311 -39.9039 EX 60 -4 46 65
1953258N19296 1953 54 NA NA EDNA 1953-09-19 18:00:00 ET 46.2000 -36.9000 60 hurdat_atl main 1195 1195 O_____________ hurdat_atl AL071953 46.2000 -36.9000 EX 60 -4 46 65
1953258N19296 1953 54 NA NA EDNA 1953-09-19 21:00:00 ET 47.1658 -33.8943 main 1399 1399 P_____________ AL071953 47.1658 -33.8943 EX 60 -4 45 65
1953258N19296 1953 54 NA NA EDNA 1953-09-20 00:00:00 ET 48.1000 -30.9000 60 hurdat_atl main 1508 1271 O_____________ hurdat_atl AL071953 48.1000 -30.9000 EX 60 -4 44 67
1953258N19296 1953 54 NA NA EDNA 1953-09-20 03:00:00 ET 48.9247 -27.7736 main 1264 1050 P_____________ AL071953 48.9247 -27.7736 EX 65 -4 42 68
1953258N19296 1953 54 NA NA EDNA 1953-09-20 06:00:00 ET 49.7000 -25.0000 70 hurdat_atl main 1044 888 O_____________ hurdat_atl AL071953 49.7000 -25.0000 EX 70 -4 34 63
1953258N19296 1953 54 NA NA EDNA 1953-09-20 09:00:00 ET 50.5063 -23.0386 main 881 751 P_____________ AL071953 50.5063 -23.0386 EX 75 -4 28 56
1953258N19296 1953 54 NA NA EDNA 1953-09-20 12:00:00 ET 51.3000 -21.3000 80 hurdat_atl main 745 585 O_____________ hurdat_atl AL071953 51.3000 -21.3000 EX 80 -4 29 60
1953258N19296 1953 54 NA NA EDNA 1953-09-20 15:00:00 ET 51.9828 -18.9974 main 578 429 P_____________ AL071953 51.9828 -18.9974 EX 80 -4 31 65
1953258N19296 1953 54 NA NA EDNA 1953-09-20 18:00:00 ET 52.6000 -16.7000 80 hurdat_atl main 422 311 O_____________ hurdat_atl AL071953 52.6000 -16.7000 EX 80 -4 28 63
1953258N19296 1953 54 NA NA EDNA 1953-09-20 21:00:00 ET 53.2680 -14.7900 main 303 195 P_____________ AL071953 53.2680 -14.7900 EX 77 -4 25 62
1953258N19296 1953 54 NA NA EDNA 1953-09-21 00:00:00 ET 53.8000 -13.0000 75 hurdat_atl main 189 65 O_____________ hurdat_atl AL071953 53.8000 -13.0000 EX 75 -4 24 71
1953258N19296 1953 54 NA NA EDNA 1953-09-21 03:00:00 ET 54.0259 -11.0092 main 59 0 P_____________ AL071953 54.0259 -11.0092 EX 72 -4 22 82
1953258N19296 1953 54 NA NA EDNA 1953-09-21 06:00:00 ET 54.1000 -9.20000 70 hurdat_atl main 0 0 O_____________ hurdat_atl AL071953 54.1000 -9.20000 EX 70 -4 19 85
1953258N19296 1953 54 NA NA EDNA 1953-09-21 09:00:00 ET 54.1952 -7.80739 main 0 0 P_____________ AL071953 54.1952 -7.80739 EX 67 -4 15 83
1953258N19296 1953 54 NA NA EDNA 1953-09-21 12:00:00 ET 54.3000 -6.60000 65 hurdat_atl main 0 0 O_____________ hurdat_atl AL071953 54.3000 -6.60000 EX 65 -4 15 80
1953258N19296 1953 54 NA NA EDNA 1953-09-21 15:00:00 ET 54.4421 -5.33323 main 12 6 P_____________ AL071953 54.4421 -5.33323 EX 62 -4 15 79
1953258N19296 1953 54 NA NA EDNA 1953-09-21 18:00:00 ET 54.6000 -4.00000 60 hurdat_atl main 22 O_____________ hurdat_atl AL071953 54.6000 -4.00000 EX 60 -4 16 78

About IBTrACS Database

This database is a web-friendly format of International Best Track Archive for Climate Stewardship (IBTrACS), a global best track data archive curated by NOAA dating back to 1842.

Updated: 2021-12-01